createdAt,value
2018-03-01T00:01:26.829Z,97040.64
2018-03-01T00:03:55.919Z,97043.68
2018-03-01T00:06:26.831Z,97049.31
2018-03-01T00:08:54.348Z,97044.39
2018-03-01T00:11:25.274Z,97032.30
2018-03-01T00:13:52.742Z,97019.61
2018-03-01T00:16:20.260Z,97017.59
2018-03-01T00:18:47.793Z,97020.91
2018-03-01T00:21:19.952Z,97026.95
2018-03-01T00:23:48.587Z,97026.56
2018-03-01T00:26:16.766Z,97031.28
2018-03-01T00:28:44.798Z,97042.24
2018-03-01T00:31:13.315Z,97037.70
2018-03-01T00:33:40.748Z,97034.00
2018-03-01T00:36:08.230Z,97034.09
2018-03-01T00:38:36.575Z,97026.75
2018-03-01T00:41:04.445Z,97022.80
2018-03-01T00:43:31.917Z,97024.92
2018-03-01T00:45:59.398Z,97022.59
2018-03-01T00:48:27.357Z,97012.51
2018-03-01T00:50:54.818Z,97013.63
2018-03-01T00:53:22.290Z,97016.84
2018-03-01T00:55:50.751Z,97012.72
2018-03-01T00:58:18.268Z,97004.23
2018-03-01T01:00:45.864Z,96998.14
2018-03-01T01:03:13.426Z,97000.54
2018-03-01T01:05:41.079Z,97011.70
2018-03-01T01:08:08.833Z,97004.17
2018-03-01T01:10:36.393Z,97001.72
2018-03-01T01:13:03.927Z,97007.73
2018-03-01T01:15:31.409Z,96993.17
2018-03-01T01:17:58.860Z,96985.54
2018-03-01T01:20:26.336Z,96987.58
2018-03-01T01:22:54.735Z,96985.64
2018-03-01T01:25:22.705Z,96979.50
2018-03-01T01:27:50.290Z,96968.70
2018-03-01T01:30:17.950Z,96975.69
2018-03-01T01:32:45.465Z,96971.25
2018-03-01T01:35:13.753Z,96967.70
2018-03-01T01:37:41.258Z,96959.28
2018-03-01T01:40:08.724Z,96952.45
2018-03-01T01:42:36.180Z,96952.47
2018-03-01T01:45:03.683Z,96959.30
2018-03-01T01:47:31.154Z,96951.93
2018-03-01T01:49:58.632Z,96951.25
2018-03-01T01:52:26.070Z,96951.16
2018-03-01T01:54:53.627Z,96950.77
2018-03-01T01:57:21.091Z,96951.58
2018-03-01T01:59:48.629Z,96937.91
2018-03-01T02:02:16.082Z,96932.41
2018-03-01T02:04:43.583Z,96921.69
2018-03-01T02:07:11.072Z,96908.91
2018-03-01T02:09:38.565Z,96907.42
2018-03-01T02:12:06.058Z,96902.41
2018-03-01T02:14:34.091Z,96896.47
2018-03-01T02:17:01.570Z,96890.43
2018-03-01T02:19:29.518Z,96888.73
2018-03-01T02:21:57.045Z,96897.86
2018-03-01T02:24:24.544Z,96890.10
2018-03-01T02:26:52.021Z,96877.88
2018-03-01T02:29:19.496Z,96865.10
2018-03-01T02:31:46.960Z,96862.17
2018-03-01T02:34:14.480Z,96853.66
2018-03-01T02:36:42.882Z,96844.28
2018-03-01T02:39:10.367Z,96841.39
2018-03-01T02:41:37.969Z,96845.20
2018-03-01T02:44:05.598Z,96844.30
2018-03-01T02:46:33.207Z,96836.44
2018-03-01T02:49:00.844Z,96830.42
2018-03-01T02:51:28.286Z,96825.81
2018-03-01T02:53:55.906Z,96824.02
2018-03-01T02:56:23.375Z,96820.91
2018-03-01T02:58:50.920Z,96824.50
2018-03-01T03:01:19.149Z,96823.42
2018-03-01T03:03:46.637Z,96824.16
2018-03-01T03:06:15.018Z,96818.70
2018-03-01T03:08:42.665Z,96816.67
2018-03-01T03:11:10.134Z,96811.36
2018-03-01T03:13:37.588Z,96803.82
2018-03-01T03:16:05.064Z,96796.41
2018-03-01T03:18:33.254Z,96801.03
2018-03-01T03:21:00.734Z,96791.69
2018-03-01T03:23:28.220Z,96790.77
2018-03-01T03:25:56.073Z,96791.77
2018-03-01T03:28:23.831Z,96784.16
2018-03-01T03:30:51.294Z,96785.86
2018-03-01T03:33:18.748Z,96781.12
2018-03-01T03:35:46.237Z,96789.14
2018-03-01T03:38:13.755Z,96785.11
2018-03-01T03:40:41.271Z,96777.61
2018-03-01T03:43:08.869Z,96778.82
2018-03-01T03:45:36.365Z,96778.59
2018-03-01T03:48:03.916Z,96778.63
2018-03-01T03:50:31.365Z,96776.34
2018-03-01T03:52:58.898Z,96783.97
2018-03-01T03:55:26.383Z,96779.74
2018-03-01T03:57:54.128Z,96784.20
2018-03-01T04:00:21.610Z,96780.38
2018-03-01T04:02:49.450Z,96779.08
2018-03-01T04:05:16.914Z,96779.27
2018-03-01T04:07:44.462Z,96762.91
2018-03-01T04:10:12.394Z,96760.60
2018-03-01T04:12:39.864Z,96757.00
2018-03-01T04:15:07.404Z,96741.66
2018-03-01T04:17:34.921Z,96745.08
2018-03-01T04:20:03.337Z,96746.81
2018-03-01T04:22:30.827Z,96741.28
2018-03-01T04:24:58.297Z,96751.22
2018-03-01T04:27:25.790Z,96742.38
2018-03-01T04:29:53.271Z,96745.98
2018-03-01T04:32:20.769Z,96745.78
2018-03-01T04:34:48.221Z,96750.22
2018-03-01T04:37:15.685Z,96747.41
2018-03-01T04:39:43.649Z,96741.98
2018-03-01T04:42:11.188Z,96735.56
2018-03-01T04:44:38.659Z,96731.84
2018-03-01T04:47:06.100Z,96732.47
2018-03-01T04:49:33.655Z,96731.05
2018-03-01T04:52:01.198Z,96728.44
2018-03-01T04:54:28.720Z,96725.13
2018-03-01T04:56:56.160Z,96733.34
2018-03-01T04:59:24.268Z,96738.79
2018-03-01T05:01:51.747Z,96733.75
2018-03-01T05:04:19.212Z,96732.36
2018-03-01T05:06:46.689Z,96731.34
2018-03-01T05:09:14.136Z,96726.73
2018-03-01T05:11:41.603Z,96724.41
2018-03-01T05:14:09.047Z,96721.09
2018-03-01T05:16:36.580Z,96728.93
2018-03-01T05:19:04.033Z,96730.33
2018-03-01T05:21:31.496Z,96733.44
2018-03-01T05:23:58.983Z,96738.09
2018-03-01T05:26:26.548Z,96736.45
2018-03-01T05:28:53.999Z,96732.45
2018-03-01T05:31:21.513Z,96740.99
2018-03-01T05:33:49.153Z,96733.14
2018-03-01T05:36:16.706Z,96731.55
2018-03-01T05:38:44.279Z,96731.54
2018-03-01T05:41:11.752Z,96723.62
2018-03-01T05:43:39.259Z,96722.92
2018-03-01T05:46:06.743Z,96712.65
2018-03-01T05:48:34.203Z,96717.88
2018-03-01T05:51:01.994Z,96707.75
2018-03-01T05:53:29.486Z,96701.73
2018-03-01T05:55:56.951Z,96701.02
2018-03-01T05:58:24.453Z,96698.90
2018-03-01T06:00:51.889Z,96684.66
2018-03-01T06:03:19.483Z,96690.17
2018-03-01T06:05:47.069Z,96690.16
2018-03-01T06:08:14.579Z,96687.25
2018-03-01T06:10:42.018Z,96692.48
2018-03-01T06:13:09.459Z,96684.14
2018-03-01T06:15:36.933Z,96686.95
2018-03-01T06:18:04.365Z,96685.94
2018-03-01T06:20:31.845Z,96687.65
2018-03-01T06:22:59.370Z,96691.37
2018-03-01T06:25:26.853Z,96695.28
2018-03-01T06:27:54.390Z,96694.50
2018-03-01T06:30:21.907Z,96680.63
2018-03-01T06:32:49.359Z,96682.92
2018-03-01T06:35:16.823Z,96684.91
2018-03-01T06:37:44.279Z,96686.17
2018-03-01T06:40:11.749Z,96683.97
2018-03-01T06:42:39.218Z,96684.84
2018-03-01T06:45:06.746Z,96671.38
2018-03-01T06:47:34.322Z,96662.39
2018-03-01T06:50:01.856Z,96654.86
2018-03-01T06:52:29.344Z,96671.04
2018-03-01T06:54:56.810Z,96670.84
2018-03-01T06:57:24.311Z,96667.69
2018-03-01T06:59:51.751Z,96666.62
2018-03-01T07:02:19.245Z,96673.25
2018-03-01T07:04:46.687Z,96662.89
2018-03-01T07:07:14.153Z,96659.45
2018-03-01T07:09:41.616Z,96661.75
2018-03-01T07:12:09.078Z,96651.48
2018-03-01T07:14:36.557Z,96654.52
2018-03-01T07:17:04.027Z,96647.58
2018-03-01T07:19:31.523Z,96636.31
2018-03-01T07:21:58.951Z,96640.76
2018-03-01T07:24:26.395Z,96646.69
2018-03-01T07:26:53.853Z,96646.03
2018-03-01T07:29:21.302Z,96642.66
2018-03-01T07:31:48.865Z,96641.69
2018-03-01T07:34:16.340Z,96649.52
2018-03-01T07:36:43.794Z,96644.38
2018-03-01T07:39:11.264Z,96633.75
2018-03-01T07:41:38.726Z,96644.02
2018-03-01T07:44:06.214Z,96633.05
2018-03-01T07:46:33.675Z,96634.70
2018-03-01T07:49:01.191Z,96627.48
2018-03-01T07:51:28.711Z,96626.91
2018-03-01T07:53:56.207Z,96638.84
2018-03-01T07:56:23.632Z,96633.63
2018-03-01T07:58:51.139Z,96625.48
2018-03-01T08:01:18.603Z,96625.07
2018-03-01T08:03:46.064Z,96621.98
2018-03-01T08:06:13.504Z,96631.41
2018-03-01T08:08:40.984Z,96615.81
2018-03-01T08:11:08.470Z,96625.05
2018-03-01T08:13:35.910Z,96628.85
2018-03-01T08:16:03.392Z,96627.13
2018-03-01T08:18:31.430Z,96622.63
2018-03-01T08:20:58.906Z,96619.45
2018-03-01T08:23:26.351Z,96606.36
2018-03-01T08:25:53.841Z,96606.60
2018-03-01T08:28:21.497Z,96606.24
2018-03-01T08:30:49.034Z,96602.27
2018-03-01T08:33:16.663Z,96604.34
2018-03-01T08:35:44.259Z,96599.35
2018-03-01T08:38:11.843Z,96597.10
2018-03-01T08:40:39.434Z,96601.41
2018-03-01T08:43:07.064Z,96598.49
2018-03-01T08:45:34.526Z,96594.19
2018-03-01T08:48:01.994Z,96596.38
2018-03-01T08:50:29.455Z,96586.33
2018-03-01T08:52:56.998Z,96591.24
2018-03-01T08:55:24.430Z,96595.80
2018-03-01T08:57:51.906Z,96599.30
2018-03-01T09:00:19.487Z,96597.07
2018-03-01T09:02:47.065Z,96599.77
2018-03-01T09:05:14.542Z,96596.19
2018-03-01T09:07:42.039Z,96592.70
2018-03-01T09:10:09.536Z,96591.83
2018-03-01T09:12:36.969Z,96584.03
2018-03-01T09:15:04.411Z,96585.63
2018-03-01T09:17:31.944Z,96585.45
2018-03-01T09:19:59.467Z,96590.75
2018-03-01T09:22:27.488Z,96589.99
2018-03-01T09:24:55.054Z,96590.48
2018-03-01T09:27:22.628Z,96584.16
2018-03-01T09:29:50.161Z,96591.05
2018-03-01T09:32:17.761Z,96590.98
2018-03-01T09:34:45.360Z,96591.22
2018-03-01T09:37:12.922Z,96593.48
2018-03-01T09:39:40.355Z,96590.68
2018-03-01T09:42:07.805Z,96590.20
2018-03-01T09:44:35.288Z,96588.45
2018-03-01T09:47:02.739Z,96589.39
2018-03-01T09:49:30.198Z,96579.89
2018-03-01T09:51:57.651Z,96578.74
2018-03-01T09:54:25.214Z,96574.35
2018-03-01T09:56:52.718Z,96565.36
2018-03-01T09:59:20.290Z,96565.80
2018-03-01T10:01:48.151Z,96561.69
2018-03-01T10:04:15.643Z,96557.47
2018-03-01T10:06:43.105Z,96558.67
2018-03-01T10:09:10.547Z,96561.73
2018-03-01T10:11:37.992Z,96547.93
2018-03-01T10:14:05.453Z,96552.05
2018-03-01T10:16:32.880Z,96550.28
2018-03-01T10:19:00.337Z,96550.68
2018-03-01T10:21:27.842Z,96544.77
2018-03-01T10:23:55.329Z,96538.27
2018-03-01T10:26:22.835Z,96536.19
2018-03-01T10:28:50.292Z,96534.33
2018-03-01T10:31:18.429Z,96534.92
2018-03-01T10:33:46.878Z,96527.99
2018-03-01T10:36:14.367Z,96532.92
2018-03-01T10:38:41.964Z,96538.04
2018-03-01T10:41:09.517Z,96536.36
2018-03-01T10:43:36.979Z,96524.43
2018-03-01T10:46:04.460Z,96521.48
2018-03-01T10:48:31.904Z,96512.63
2018-03-01T10:50:59.401Z,96514.80
2018-03-01T10:53:30.963Z,96514.08
2018-03-01T10:55:58.461Z,96519.94
2018-03-01T10:58:26.071Z,96510.75
2018-03-01T11:00:59.555Z,96506.20
2018-03-01T11:03:27.251Z,96506.15
2018-03-01T11:05:54.720Z,96501.77
2018-03-01T11:08:22.625Z,96501.93
2018-03-01T11:10:50.196Z,96497.09
2018-03-01T11:13:17.824Z,96489.45
2018-03-01T11:15:45.362Z,96492.20
2018-03-01T11:18:12.877Z,96476.63
2018-03-01T11:20:40.312Z,96477.45
2018-03-01T11:23:07.764Z,96465.72
2018-03-01T11:25:35.226Z,96460.17
2018-03-01T11:28:02.668Z,96466.34
2018-03-01T11:30:30.385Z,96458.09
2018-03-01T11:32:57.822Z,96447.47
2018-03-01T11:35:25.653Z,96442.82
2018-03-01T11:37:53.075Z,96434.70
2018-03-01T11:40:20.544Z,96433.55
2018-03-01T11:42:48.037Z,96432.25
2018-03-01T11:45:15.521Z,96418.72
2018-03-01T11:47:42.991Z,96411.07
2018-03-01T11:50:10.520Z,96413.55
2018-03-01T11:52:38.094Z,96402.14
2018-03-01T11:55:05.558Z,96399.73
2018-03-01T11:57:33.023Z,96400.09
2018-03-01T12:00:00.504Z,96395.40
2018-03-01T12:02:27.990Z,96389.98
2018-03-01T12:04:55.551Z,96394.15
2018-03-01T12:07:23.148Z,96396.86
2018-03-01T12:09:50.629Z,96390.28
2018-03-01T12:12:18.342Z,96384.03
2018-03-01T12:14:45.855Z,96381.14
2018-03-01T12:17:13.368Z,96390.16
2018-03-01T12:19:40.834Z,96383.14
2018-03-01T12:22:08.402Z,96385.30
2018-03-01T12:24:35.968Z,96379.77
2018-03-01T12:27:03.497Z,96376.44
2018-03-01T12:29:30.926Z,96368.88
2018-03-01T12:31:58.386Z,96363.22
2018-03-01T12:34:25.854Z,96359.39
2018-03-01T12:36:53.293Z,96363.40
2018-03-01T12:39:21.052Z,96365.09
2018-03-01T12:41:48.527Z,96357.46
2018-03-01T12:44:15.989Z,96362.82
2018-03-01T12:46:43.451Z,96349.93
2018-03-01T12:49:10.993Z,96356.94
2018-03-01T12:51:38.771Z,96353.35
2018-03-01T12:54:06.211Z,96339.38
2018-03-01T12:56:33.862Z,96339.25
2018-03-01T12:59:01.323Z,96337.01
2018-03-01T13:01:28.812Z,96344.21
2018-03-01T13:03:56.277Z,96336.77
2018-03-01T13:06:23.803Z,96339.70
2018-03-01T13:08:51.268Z,96336.17
2018-03-01T13:11:18.760Z,96340.61
2018-03-01T13:13:46.232Z,96340.27
2018-03-01T13:16:13.718Z,96344.75
2018-03-01T13:18:41.264Z,96336.61
2018-03-01T13:21:08.760Z,96328.50
2018-03-01T13:23:36.629Z,96329.67
2018-03-01T13:26:04.154Z,96327.44
2018-03-01T13:28:31.624Z,96321.53
2018-03-01T13:31:00.917Z,96319.70
2018-03-01T13:33:28.687Z,96321.36
2018-03-01T13:35:57.047Z,96314.86
2018-03-01T13:38:24.565Z,96314.75
2018-03-01T13:40:52.026Z,96332.15
2018-03-01T13:43:22.516Z,96322.21
2018-03-01T13:45:50.625Z,96327.87
2018-03-01T13:48:18.336Z,96328.55
2018-03-01T13:50:46.746Z,96320.77
2018-03-01T13:53:14.271Z,96321.05
2018-03-01T13:55:41.723Z,96327.75
2018-03-01T13:58:09.291Z,96309.99
2018-03-01T14:00:37.270Z,96310.70
2018-03-01T14:03:04.735Z,96308.84
2018-03-01T14:05:32.601Z,96304.33
2018-03-01T14:08:00.054Z,96308.59
2018-03-01T14:10:28.424Z,96302.43
2018-03-01T14:12:59.796Z,96301.47
2018-03-01T14:15:27.569Z,96300.45
2018-03-01T14:18:01.575Z,96301.53
2018-03-01T14:20:34.547Z,96296.80
2018-03-01T14:26:08.614Z,96284.09
2018-03-01T14:28:42.183Z,96278.23
2018-03-01T14:31:09.736Z,96279.30
2018-03-01T14:33:37.261Z,96281.44
2018-03-01T14:36:04.814Z,96281.80
2018-03-01T14:38:32.265Z,96285.12
2018-03-01T14:41:00.092Z,96276.79
2018-03-01T14:43:28.483Z,96269.77
2018-03-01T14:45:56.048Z,96287.90
2018-03-01T14:48:23.648Z,96288.36
2018-03-01T14:50:51.177Z,96289.68
2018-03-01T14:53:18.809Z,96274.22
2018-03-01T14:55:46.403Z,96275.18
2018-03-01T14:58:14.337Z,96278.05
2018-03-01T15:00:41.853Z,96277.33
2018-03-01T15:03:09.462Z,96268.43
2018-03-01T15:05:36.968Z,96273.37
2018-03-01T15:08:04.445Z,96263.85
2018-03-01T15:10:31.921Z,96268.98
2018-03-01T15:12:59.410Z,96256.70
2018-03-01T15:15:26.884Z,96260.44
2018-03-01T15:17:54.339Z,96261.92
2018-03-01T15:20:22.503Z,96258.48
2018-03-01T15:22:49.993Z,96263.45
2018-03-01T15:25:17.526Z,96256.84
2018-03-01T15:27:45.136Z,96259.99
2018-03-01T15:30:12.651Z,96267.19
2018-03-01T15:32:40.769Z,96262.50
2018-03-01T15:35:08.830Z,96263.92
2018-03-01T15:37:36.431Z,96263.20
2018-03-01T15:40:04.575Z,96256.97
2018-03-01T15:42:32.053Z,96258.42
2018-03-01T15:45:01.259Z,96252.77
2018-03-01T15:47:28.736Z,96260.80
2018-03-01T15:49:56.292Z,96252.59
2018-03-01T15:52:23.798Z,96253.25
2018-03-01T15:54:51.285Z,96255.52
2018-03-01T15:57:18.736Z,96253.16
2018-03-01T15:59:46.283Z,96249.92
2018-03-01T16:02:14.141Z,96254.80
2018-03-01T16:04:41.774Z,96263.25
2018-03-01T16:07:09.282Z,96268.28
2018-03-01T16:09:37.241Z,96275.36
2018-03-01T16:12:04.719Z,96276.70
2018-03-01T16:14:32.237Z,96271.47
2018-03-01T16:16:59.770Z,96270.65
2018-03-01T16:19:27.230Z,96265.48
2018-03-01T16:21:54.706Z,96264.20
2018-03-01T16:24:23.133Z,96267.70
2018-03-01T16:26:50.598Z,96271.59
2018-03-01T16:29:18.072Z,96262.44
2018-03-01T16:31:45.553Z,96258.91
2018-03-01T16:34:13.104Z,96263.28
2018-03-01T16:36:40.602Z,96261.05
2018-03-01T16:39:08.057Z,96260.92
2018-03-01T16:41:35.503Z,96257.86
2018-03-01T16:44:03.017Z,96258.33
2018-03-01T16:46:30.475Z,96253.23
2018-03-01T16:48:57.971Z,96260.58
2018-03-01T16:51:25.459Z,96251.77
2018-03-01T16:53:52.905Z,96258.36
2018-03-01T16:56:20.391Z,96255.57
2018-03-01T16:58:48.058Z,96252.73
2018-03-01T17:01:15.526Z,96249.52
2018-03-01T17:03:43.138Z,96248.83
2018-03-01T17:06:10.648Z,96268.56
2018-03-01T17:08:38.127Z,96266.59
2018-03-01T17:11:05.600Z,96274.78
2018-03-01T17:13:33.115Z,96280.77
2018-03-01T17:16:00.594Z,96279.64
2018-03-01T17:18:28.077Z,96275.70
2018-03-01T17:20:55.560Z,96270.83
2018-03-01T17:23:23.017Z,96262.30
2018-03-01T17:25:50.521Z,96264.30
2018-03-01T17:28:18.224Z,96261.77
2018-03-01T17:30:45.710Z,96263.06
2018-03-01T17:33:13.267Z,96265.77
2018-03-01T17:35:40.844Z,96261.81
2018-03-01T17:38:08.374Z,96266.78
2018-03-01T17:40:35.875Z,96259.42
2018-03-01T17:43:03.420Z,96270.42
2018-03-01T17:45:31.179Z,96264.98
2018-03-01T17:47:58.665Z,96259.30
2018-03-01T17:50:26.099Z,96253.65
2018-03-01T17:52:53.587Z,96257.41
2018-03-01T17:55:21.024Z,96253.38
2018-03-01T17:57:48.483Z,96245.98
2018-03-01T18:00:15.975Z,96251.26
2018-03-01T18:02:43.439Z,96253.15
2018-03-01T18:05:10.947Z,96256.67
2018-03-01T18:07:38.460Z,96260.63
2018-03-01T18:10:05.955Z,96252.69
2018-03-01T18:12:33.669Z,96247.62
2018-03-01T18:15:01.177Z,96251.19
2018-03-01T18:17:28.698Z,96257.36
2018-03-01T18:19:56.882Z,96254.91
2018-03-01T18:22:24.376Z,96255.33
2018-03-01T18:24:51.854Z,96246.33
2018-03-01T18:27:19.771Z,96253.94
2018-03-01T18:29:47.232Z,96247.66
2018-03-01T18:32:15.284Z,96245.98
2018-03-01T18:34:43.409Z,96246.45
2018-03-01T18:37:10.964Z,96245.27
2018-03-01T18:39:38.452Z,96230.73
2018-03-01T18:42:07.380Z,96229.91
2018-03-01T18:44:34.834Z,96224.36
2018-03-01T18:47:02.323Z,96220.50
2018-03-01T18:49:34.045Z,96220.05
2018-03-01T18:52:02.139Z,96210.10
2018-03-01T18:54:30.594Z,96211.41
2018-03-01T18:56:59.621Z,96209.99
2018-03-01T18:59:27.076Z,96211.44
2018-03-01T19:01:56.033Z,96207.09
2018-03-01T19:04:24.034Z,96200.09
2018-03-01T19:06:52.244Z,96202.11
2018-03-01T19:09:19.745Z,96200.45
2018-03-01T19:11:47.289Z,96195.69
2018-03-01T19:14:16.392Z,96198.34
2018-03-01T19:16:43.853Z,96192.85
2018-03-01T19:19:11.360Z,96184.77
2018-03-01T19:21:38.867Z,96174.83
2018-03-01T19:24:06.339Z,96175.27
2018-03-01T19:26:33.892Z,96180.22
2018-03-01T19:29:01.455Z,96175.84
2018-03-01T19:31:29.886Z,96178.81
2018-03-01T19:33:57.384Z,96179.93
2018-03-01T19:36:24.856Z,96177.39
2018-03-01T19:38:52.424Z,96178.61
2018-03-01T19:41:19.898Z,96182.07
2018-03-01T19:43:47.848Z,96182.32
2018-03-01T19:46:15.515Z,96178.31
2018-03-01T19:48:43.489Z,96178.29
2018-03-01T19:51:11.443Z,96181.02
2018-03-01T19:53:38.907Z,96166.90
2018-03-01T19:56:06.419Z,96172.81
2018-03-01T19:58:33.981Z,96159.45
2018-03-01T20:01:01.986Z,96161.83
2018-03-01T20:03:29.516Z,96159.53
2018-03-01T20:05:57.112Z,96158.89
2018-03-01T20:08:24.586Z,96164.12
2018-03-01T20:10:52.171Z,96158.19
2018-03-01T20:13:19.683Z,96156.27
2018-03-01T20:15:47.143Z,96157.03
2018-03-01T20:18:15.465Z,96156.54
2018-03-01T20:20:43.052Z,96153.66
2018-03-01T20:23:10.611Z,96143.84
2018-03-01T20:25:38.292Z,96154.27
2018-03-01T20:28:05.907Z,96145.44
2018-03-01T20:30:33.385Z,96135.44
2018-03-01T20:33:00.872Z,96126.34
2018-03-01T20:35:28.389Z,96129.08
2018-03-01T20:37:56.158Z,96131.12
2018-03-01T20:40:23.660Z,96128.45
2018-03-01T20:42:51.192Z,96135.73
2018-03-01T20:45:18.690Z,96135.33
2018-03-01T20:47:48.254Z,96127.89
2018-03-01T20:50:16.454Z,96130.31
2018-03-01T20:52:43.908Z,96130.44
2018-03-01T20:55:11.455Z,96122.16
2018-03-01T20:57:38.885Z,96131.78
2018-03-01T21:00:06.393Z,96133.36
2018-03-01T21:02:34.024Z,96133.52
2018-03-01T21:05:01.569Z,96129.77
2018-03-01T21:07:32.668Z,96141.33
2018-03-01T21:10:00.210Z,96144.06
2018-03-01T21:12:27.655Z,96149.43
2018-03-01T21:14:55.153Z,96147.86
2018-03-01T21:17:22.631Z,96144.79
2018-03-01T21:19:50.093Z,96139.70
2018-03-01T21:22:17.741Z,96134.15
2018-03-01T21:24:45.274Z,96133.58
2018-03-01T21:27:12.830Z,96132.42
2018-03-01T21:29:40.384Z,96126.58
2018-03-01T21:32:07.884Z,96133.14
2018-03-01T21:34:35.447Z,96131.50
2018-03-01T21:37:02.916Z,96123.47
2018-03-01T21:39:30.401Z,96122.41
2018-03-01T21:41:59.353Z,96111.22
2018-03-01T21:44:28.682Z,96109.78
2018-03-01T21:47:07.496Z,96100.03
2018-03-01T21:49:35.127Z,96105.27
2018-03-01T21:52:02.903Z,96098.04
2018-03-01T21:54:30.385Z,96092.25
2018-03-01T21:56:57.891Z,96097.24
2018-03-01T21:59:25.351Z,96098.53
2018-03-01T22:01:52.848Z,96096.35
2018-03-01T22:04:20.390Z,96095.41
2018-03-01T22:06:49.017Z,96090.28
2018-03-01T22:09:16.784Z,96092.67
2018-03-01T22:11:44.522Z,96089.52
2018-03-01T22:14:11.986Z,96091.36
2018-03-01T22:16:39.464Z,96084.56
2018-03-01T22:19:06.956Z,96083.58
2018-03-01T22:21:34.587Z,96080.39
2018-03-01T22:24:02.168Z,96075.37
2018-03-01T22:26:29.724Z,96063.96
2018-03-01T22:28:57.849Z,96061.99
2018-03-01T22:31:25.350Z,96057.37
2018-03-01T22:33:52.875Z,96053.81
2018-03-01T22:36:20.441Z,96056.09
2018-03-01T22:38:47.912Z,96062.64
2018-03-01T22:41:15.390Z,96056.45
2018-03-01T22:43:42.872Z,96054.63
2018-03-01T22:46:10.361Z,96065.40
2018-03-01T22:48:37.823Z,96054.38
2018-03-01T22:51:05.363Z,96054.13
2018-03-01T22:53:32.869Z,96056.98
2018-03-01T22:56:00.685Z,96049.82
2018-03-01T22:58:28.219Z,96042.72
2018-03-01T23:00:56.557Z,96043.11
2018-03-01T23:03:24.032Z,96038.70
2018-03-01T23:05:51.478Z,96037.05
2018-03-01T23:08:18.955Z,96031.03
2018-03-01T23:10:46.456Z,96028.52
2018-03-01T23:13:13.930Z,96024.26
2018-03-01T23:15:41.369Z,96031.24
2018-03-01T23:18:08.873Z,96019.21
2018-03-01T23:20:36.348Z,96027.14
2018-03-01T23:23:05.150Z,96031.61
2018-03-01T23:25:32.645Z,96028.91
2018-03-01T23:28:00.108Z,96020.74
2018-03-01T23:30:27.982Z,96012.02
2018-03-01T23:32:55.522Z,96007.03
2018-03-01T23:35:23.187Z,96018.70
2018-03-01T23:37:50.640Z,96007.80
2018-03-01T23:40:18.920Z,96001.89
2018-03-01T23:42:46.937Z,95999.36
2018-03-01T23:45:14.958Z,95998.32
2018-03-01T23:47:42.451Z,95995.47
2018-03-01T23:50:09.946Z,95996.20
2018-03-01T23:52:38.314Z,95984.55
2018-03-01T23:55:06.429Z,95972.12
2018-03-01T23:57:34.193Z,95974.23
